sensor_id;sensor_type;location;lat;lon;timestamp;temperature;humidity
12833;DHT22;6483;51.310;4.462;2023-04-15T00:02:00;8.20;99.90
12833;DHT22;6483;51.310;4.462;2023-04-15T00:04:26;8.10;99.90
12833;DHT22;6483;51.310;4.462;2023-04-15T00:06:53;7.90;99.90
12833;DHT22;6483;51.310;4.462;2023-04-15T00:09:19;8.00;99.90
12833;DHT22;6483;51.310;4.462;2023-04-15T00:11:46;8.00;99.90
12833;DHT22;6483;51.310;4.462;2023-04-15T00:14:15;8.00;99.90
12833;DHT22;6483;51.310;4.462;2023-04-15T00:16:40;8.00;99.90
12833;DHT22;6483;51.310;4.462;2023-04-15T00:19:06;7.90;99.90
12833;DHT22;6483;51.310;4.462;2023-04-15T00:21:37;7.90;99.90
12833;DHT22;6483;51.310;4.462;2023-04-15T00:24:03;7.90;99.90
12833;DHT22;6483;51.310;4.462;2023-04-15T00:26:30;7.90;99.90
12833;DHT22;6483;51.310;4.462;2023-04-15T00:28:56;7.90;99.90
12833;DHT22;6483;51.310;4.462;2023-04-15T00:31:22;7.90;99.90
12833;DHT22;6483;51.310;4.462;2023-04-15T00:33:48;8.00;99.90
12833;DHT22;6483;51.310;4.462;2023-04-15T00:36:14;8.00;99.90
12833;DHT22;6483;51.310;4.462;2023-04-15T00:38:42;8.10;99.90
12833;DHT22;6483;51.310;4.462;2023-04-15T00:41:09;8.30;99.90
12833;DHT22;6483;51.310;4.462;2023-04-15T00:43:54;8.20;99.90
12833;DHT22;6483;51.310;4.462;2023-04-15T00:46:20;8.30;99.90
12833;DHT22;6483;51.310;4.462;2023-04-15T00:48:47;7.60;99.90
12833;DHT22;6483;51.310;4.462;2023-04-15T00:51:16;9.80;99.90
12833;DHT22;6483;51.310;4.462;2023-04-15T00:53:45;8.30;99.90
12833;DHT22;6483;51.310;4.462;2023-04-15T00:56:11;8.40;99.90
12833;DHT22;6483;51.310;4.462;2023-04-15T00:58:37;8.60;99.90
12833;DHT22;6483;51.310;4.462;2023-04-15T01:01:03;8.70;99.90
12833;DHT22;6483;51.310;4.462;2023-04-15T01:03:29;8.70;99.90
12833;DHT22;6483;51.310;4.462;2023-04-15T01:05:59;8.70;99.90
12833;DHT22;6483;51.310;4.462;2023-04-15T01:08:28;8.80;99.90
12833;DHT22;6483;51.310;4.462;2023-04-15T01:10:56;8.80;99.90
12833;DHT22;6483;51.310;4.462;2023-04-15T01:13:23;8.70;99.90
12833;DHT22;6483;51.310;4.462;2023-04-15T01:15:50;8.70;99.90
12833;DHT22;6483;51.310;4.462;2023-04-15T01:18:17;8.60;99.90
12833;DHT22;6483;51.310;4.462;2023-04-15T01:20:43;8.70;99.90
12833;DHT22;6483;51.310;4.462;2023-04-15T01:23:09;8.70;99.90
12833;DHT22;6483;51.310;4.462;2023-04-15T01:25:34;8.70;99.90
12833;DHT22;6483;51.310;4.462;2023-04-15T01:28:00;8.70;99.90
12833;DHT22;6483;51.310;4.462;2023-04-15T01:30:32;8.70;99.90
12833;DHT22;6483;51.310;4.462;2023-04-15T01:32:58;8.60;99.90
12833;DHT22;6483;51.310;4.462;2023-04-15T01:35:26;8.70;99.90
12833;DHT22;6483;51.310;4.462;2023-04-15T01:38:05;8.70;99.90
12833;DHT22;6483;51.310;4.462;2023-04-15T01:40:33;8.70;99.90
12833;DHT22;6483;51.310;4.462;2023-04-15T01:43:05;8.70;99.90
12833;DHT22;6483;51.310;4.462;2023-04-15T01:45:31;8.70;99.90
12833;DHT22;6483;51.310;4.462;2023-04-15T01:47:56;8.80;99.90
12833;DHT22;6483;51.310;4.462;2023-04-15T01:50:22;8.80;99.90
12833;DHT22;6483;51.310;4.462;2023-04-15T01:52:48;8.80;99.90
12833;DHT22;6483;51.310;4.462;2023-04-15T01:55:20;8.80;99.90
12833;DHT22;6483;51.310;4.462;2023-04-15T01:57:47;8.80;99.90
12833;DHT22;6483;51.310;4.462;2023-04-15T02:00:13;8.80;99.90
12833;DHT22;6483;51.310;4.462;2023-04-15T02:02:41;10.70;99.90
12833;DHT22;6483;51.310;4.462;2023-04-15T02:05:08;8.80;99.90
12833;DHT22;6483;51.310;4.462;2023-04-15T02:07:34;8.90;99.90
12833;DHT22;6483;51.310;4.462;2023-04-15T02:10:00;9.00;99.90
12833;DHT22;6483;51.310;4.462;2023-04-15T02:12:44;8.90;99.90
12833;DHT22;6483;51.310;4.462;2023-04-15T02:15:16;8.80;99.90
12833;DHT22;6483;51.310;4.462;2023-04-15T02:17:42;8.90;99.90
12833;DHT22;6483;51.310;4.462;2023-04-15T02:20:10;8.90;99.90
12833;DHT22;6483;51.310;4.462;2023-04-15T02:22:39;8.90;99.90
12833;DHT22;6483;51.310;4.462;2023-04-15T02:25:05;8.90;99.90
12833;DHT22;6483;51.310;4.462;2023-04-15T02:27:31;8.90;99.90
12833;DHT22;6483;51.310;4.462;2023-04-15T02:29:58;8.70;99.90
12833;DHT22;6483;51.310;4.462;2023-04-15T02:32:23;8.60;99.90
12833;DHT22;6483;51.310;4.462;2023-04-15T02:34:51;8.60;99.90
12833;DHT22;6483;51.310;4.462;2023-04-15T02:37:17;8.60;99.90
12833;DHT22;6483;51.310;4.462;2023-04-15T02:39:47;8.60;99.90
12833;DHT22;6483;51.310;4.462;2023-04-15T02:42:14;11.30;99.90
12833;DHT22;6483;51.310;4.462;2023-04-15T02:44:40;8.70;99.90
12833;DHT22;6483;51.310;4.462;2023-04-15T02:47:05;8.80;99.90
12833;DHT22;6483;51.310;4.462;2023-04-15T02:49:37;8.80;99.90
12833;DHT22;6483;51.310;4.462;2023-04-15T02:52:03;8.80;99.90
12833;DHT22;6483;51.310;4.462;2023-04-15T02:54:28;8.80;99.90
12833;DHT22;6483;51.310;4.462;2023-04-15T02:56:54;8.60;99.90
12833;DHT22;6483;51.310;4.462;2023-04-15T02:59:23;8.50;99.90
12833;DHT22;6483;51.310;4.462;2023-04-15T03:01:52;8.50;99.90
12833;DHT22;6483;51.310;4.462;2023-04-15T03:04:18;8.50;99.90
12833;DHT22;6483;51.310;4.462;2023-04-15T03:06:44;8.50;99.90
12833;DHT22;6483;51.310;4.462;2023-04-15T03:09:09;7.40;99.90
12833;DHT22;6483;51.310;4.462;2023-04-15T03:11:35;8.70;99.90
12833;DHT22;6483;51.310;4.462;2023-04-15T03:14:09;8.60;99.90
12833;DHT22;6483;51.310;4.462;2023-04-15T03:16:34;8.70;99.90
12833;DHT22;6483;51.310;4.462;2023-04-15T03:19:00;8.50;99.90
12833;DHT22;6483;51.310;4.462;2023-04-15T03:21:29;8.40;99.90
12833;DHT22;6483;51.310;4.462;2023-04-15T03:23:55;8.50;99.90
12833;DHT22;6483;51.310;4.462;2023-04-15T03:26:31;8.40;99.90
12833;DHT22;6483;51.310;4.462;2023-04-15T03:28:57;8.20;99.90
12833;DHT22;6483;51.310;4.462;2023-04-15T03:31:23;8.00;99.90
12833;DHT22;6483;51.310;4.462;2023-04-15T03:33:49;8.10;99.90
12833;DHT22;6483;51.310;4.462;2023-04-15T03:36:15;8.10;99.90
12833;DHT22;6483;51.310;4.462;2023-04-15T03:38:42;8.10;99.90
12833;DHT22;6483;51.310;4.462;2023-04-15T03:41:07;8.10;99.90
12833;DHT22;6483;51.310;4.462;2023-04-15T03:43:34;8.10;99.90
12833;DHT22;6483;51.310;4.462;2023-04-15T03:46:02;7.80;99.90
12833;DHT22;6483;51.310;4.462;2023-04-15T03:48:28;9.60;99.90
12833;DHT22;6483;51.310;4.462;2023-04-15T03:50:54;8.00;99.90
12833;DHT22;6483;51.310;4.462;2023-04-15T03:53:20;8.00;99.90
12833;DHT22;6483;51.310;4.462;2023-04-15T03:55:46;7.90;99.90
12833;DHT22;6483;51.310;4.462;2023-04-15T03:58:12;7.80;99.90
12833;DHT22;6483;51.310;4.462;2023-04-15T04:00:38;7.80;99.90
12833;DHT22;6483;51.310;4.462;2023-04-15T04:03:05;7.80;99.90
12833;DHT22;6483;51.310;4.462;2023-04-15T04:05:31;7.70;99.90
12833;DHT22;6483;51.310;4.462;2023-04-15T04:08:03;7.70;99.90
12833;DHT22;6483;51.310;4.462;2023-04-15T04:10:33;7.70;99.90
12833;DHT22;6483;51.310;4.462;2023-04-15T04:13:02;7.90;99.90
12833;DHT22;6483;51.310;4.462;2023-04-15T04:15:27;7.80;99.90
12833;DHT22;6483;51.310;4.462;2023-04-15T04:17:53;7.80;99.90
12833;DHT22;6483;51.310;4.462;2023-04-15T04:20:19;7.80;99.90
12833;DHT22;6483;51.310;4.462;2023-04-15T04:22:46;7.80;99.90
12833;DHT22;6483;51.310;4.462;2023-04-15T04:25:14;7.80;99.90
12833;DHT22;6483;51.310;4.462;2023-04-15T04:27:42;7.90;99.90
12833;DHT22;6483;51.310;4.462;2023-04-15T04:30:26;7.90;99.90
12833;DHT22;6483;51.310;4.462;2023-04-15T04:32:55;7.90;99.90
12833;DHT22;6483;51.310;4.462;2023-04-15T04:35:21;7.80;99.90
12833;DHT22;6483;51.310;4.462;2023-04-15T04:37:47;7.90;99.90
12833;DHT22;6483;51.310;4.462;2023-04-15T04:40:12;7.90;99.90
12833;DHT22;6483;51.310;4.462;2023-04-15T04:42:38;8.10;99.90
12833;DHT22;6483;51.310;4.462;2023-04-15T04:45:10;8.00;99.90
12833;DHT22;6483;51.310;4.462;2023-04-15T04:47:36;8.00;99.90
12833;DHT22;6483;51.310;4.462;2023-04-15T04:50:05;7.90;99.90
12833;DHT22;6483;51.310;4.462;2023-04-15T04:52:35;7.80;99.90
12833;DHT22;6483;51.310;4.462;2023-04-15T04:55:01;7.60;99.90
12833;DHT22;6483;51.310;4.462;2023-04-15T04:57:30;8.00;99.90
12833;DHT22;6483;51.310;4.462;2023-04-15T04:59:58;8.00;99.90
12833;DHT22;6483;51.310;4.462;2023-04-15T05:02:27;8.10;99.90
12833;DHT22;6483;51.310;4.462;2023-04-15T05:04:53;8.20;99.90
12833;DHT22;6483;51.310;4.462;2023-04-15T05:07:19;8.20;99.90
12833;DHT22;6483;51.310;4.462;2023-04-15T05:09:51;8.20;99.90
12833;DHT22;6483;51.310;4.462;2023-04-15T05:12:17;8.30;99.90
12833;DHT22;6483;51.310;4.462;2023-04-15T05:14:46;7.00;99.90
12833;DHT22;6483;51.310;4.462;2023-04-15T05:17:11;8.40;99.90
12833;DHT22;6483;51.310;4.462;2023-04-15T05:19:41;8.40;99.90
12833;DHT22;6483;51.310;4.462;2023-04-15T05:22:07;8.50;99.90
12833;DHT22;6483;51.310;4.462;2023-04-15T05:24:33;8.60;99.90
12833;DHT22;6483;51.310;4.462;2023-04-15T05:26:58;8.60;99.90
12833;DHT22;6483;51.310;4.462;2023-04-15T05:29:26;8.70;99.90
12833;DHT22;6483;51.310;4.462;2023-04-15T05:31:52;8.70;99.90
12833;DHT22;6483;51.310;4.462;2023-04-15T05:34:17;8.80;99.90
12833;DHT22;6483;51.310;4.462;2023-04-15T05:36:43;8.80;99.90
12833;DHT22;6483;51.310;4.462;2023-04-15T05:39:12;8.90;88.50
12833;DHT22;6483;51.310;4.462;2023-04-15T05:41:38;8.90;50.60
12833;DHT22;6483;51.310;4.462;2023-04-15T05:44:03;9.00;26.70
12833;DHT22;6483;51.310;4.462;2023-04-15T05:46:30;9.00;23.70
12833;DHT22;6483;51.310;4.462;2023-04-15T05:48:59;9.00;17.90
12833;DHT22;6483;51.310;4.462;2023-04-15T05:51:25;9.00;8.40
12833;DHT22;6483;51.310;4.462;2023-04-15T05:53:53;9.10;1.00
12833;DHT22;6483;51.310;4.462;2023-04-15T05:56:25;9.10;1.00
12833;DHT22;6483;51.310;4.462;2023-04-15T05:58:54;9.10;1.00
12833;DHT22;6483;51.310;4.462;2023-04-15T06:01:20;8.80;1.00
12833;DHT22;6483;51.310;4.462;2023-04-15T06:03:55;9.30;1.00
12833;DHT22;6483;51.310;4.462;2023-04-15T06:06:21;9.20;1.00
12833;DHT22;6483;51.310;4.462;2023-04-15T06:08:47;9.20;1.00
12833;DHT22;6483;51.310;4.462;2023-04-15T06:11:13;9.30;1.00
12833;DHT22;6483;51.310;4.462;2023-04-15T06:13:42;9.30;1.00
12833;DHT22;6483;51.310;4.462;2023-04-15T06:16:08;9.30;1.00
12833;DHT22;6483;51.310;4.462;2023-04-15T06:18:33;9.50;1.00
12833;DHT22;6483;51.310;4.462;2023-04-15T06:20:59;9.50;1.00
12833;DHT22;6483;51.310;4.462;2023-04-15T06:23:25;9.60;1.00
12833;DHT22;6483;51.310;4.462;2023-04-15T06:25:50;7.90;1.00
12833;DHT22;6483;51.310;4.462;2023-04-15T06:28:16;9.80;1.00
12833;DHT22;6483;51.310;4.462;2023-04-15T06:30:43;9.90;1.00
12833;DHT22;6483;51.310;4.462;2023-04-15T06:33:12;10.00;1.00
12833;DHT22;6483;51.310;4.462;2023-04-15T06:35:38;10.10;1.00
12833;DHT22;6483;51.310;4.462;2023-04-15T06:38:07;10.20;1.00
12833;DHT22;6483;51.310;4.462;2023-04-15T06:40:32;10.30;1.00
12833;DHT22;6483;51.310;4.462;2023-04-15T06:42:58;10.40;1.00
12833;DHT22;6483;51.310;4.462;2023-04-15T06:45:24;10.50;1.00
12833;DHT22;6483;51.310;4.462;2023-04-15T06:47:50;10.60;1.00
12833;DHT22;6483;51.310;4.462;2023-04-15T06:50:16;10.60;1.00
12833;DHT22;6483;51.310;4.462;2023-04-15T06:52:41;10.70;1.00
12833;DHT22;6483;51.310;4.462;2023-04-15T06:55:09;10.80;1.00
12833;DHT22;6483;51.310;4.462;2023-04-15T06:57:37;10.90;1.00
12833;DHT22;6483;51.310;4.462;2023-04-15T07:00:06;10.90;1.00
12833;DHT22;6483;51.310;4.462;2023-04-15T07:02:38;10.90;1.00
12833;DHT22;6483;51.310;4.462;2023-04-15T07:05:09;10.90;1.00
12833;DHT22;6483;51.310;4.462;2023-04-15T07:07:35;11.00;1.00
12833;DHT22;6483;51.310;4.462;2023-04-15T07:10:07;11.00;1.00
12833;DHT22;6483;51.310;4.462;2023-04-15T07:12:56;11.10;1.00
12833;DHT22;6483;51.310;4.462;2023-04-15T07:15:22;11.20;1.00
12833;DHT22;6483;51.310;4.462;2023-04-15T07:17:51;11.20;1.00
12833;DHT22;6483;51.310;4.462;2023-04-15T07:20:16;11.30;1.00
12833;DHT22;6483;51.310;4.462;2023-04-15T07:22:46;11.30;1.00
12833;DHT22;6483;51.310;4.462;2023-04-15T07:25:11;11.40;1.00
12833;DHT22;6483;51.310;4.462;2023-04-15T07:27:40;11.40;1.00
12833;DHT22;6483;51.310;4.462;2023-04-15T07:30:06;11.50;1.00
12833;DHT22;6483;51.310;4.462;2023-04-15T07:32:35;11.50;1.00
12833;DHT22;6483;51.310;4.462;2023-04-15T07:35:01;11.60;1.00
12833;DHT22;6483;51.310;4.462;2023-04-15T07:37:28;11.70;99.90
12833;DHT22;6483;51.310;4.462;2023-04-15T07:39:57;11.70;99.90
12833;DHT22;6483;51.310;4.462;2023-04-15T07:42:26;11.80;99.90
12833;DHT22;6483;51.310;4.462;2023-04-15T07:44:51;11.90;99.90
12833;DHT22;6483;51.310;4.462;2023-04-15T07:47:17;12.00;99.90
12833;DHT22;6483;51.310;4.462;2023-04-15T07:49:43;12.10;99.90
12833;DHT22;6483;51.310;4.462;2023-04-15T07:52:09;12.20;1.00
12833;DHT22;6483;51.310;4.462;2023-04-15T07:54:35;12.30;99.90
12833;DHT22;6483;51.310;4.462;2023-04-15T07:57:00;12.40;1.00
12833;DHT22;6483;51.310;4.462;2023-04-15T07:59:28;12.50;1.00
12833;DHT22;6483;51.310;4.462;2023-04-15T08:01:55;12.70;1.00
12833;DHT22;6483;51.310;4.462;2023-04-15T08:04:21;12.80;1.00
12833;DHT22;6483;51.310;4.462;2023-04-15T08:06:50;12.90;1.00
12833;DHT22;6483;51.310;4.462;2023-04-15T08:09:16;13.10;99.90
12833;DHT22;6483;51.310;4.462;2023-04-15T08:11:47;13.20;1.00
12833;DHT22;6483;51.310;4.462;2023-04-15T08:14:13;14.00;1.00
12833;DHT22;6483;51.310;4.462;2023-04-15T08:16:39;15.10;1.00
12833;DHT22;6483;51.310;4.462;2023-04-15T08:19:05;16.20;99.90
12833;DHT22;6483;51.310;4.462;2023-04-15T08:21:31;17.40;1.00
12833;DHT22;6483;51.310;4.462;2023-04-15T08:23:57;18.60;99.90
12833;DHT22;6483;51.310;4.462;2023-04-15T08:26:26;19.50;1.00
12833;DHT22;6483;51.310;4.462;2023-04-15T08:28:52;19.30;1.00
12833;DHT22;6483;51.310;4.462;2023-04-15T08:31:18;20.20;1.00
12833;DHT22;6483;51.310;4.462;2023-04-15T08:33:45;20.50;1.00
12833;DHT22;6483;51.310;4.462;2023-04-15T08:36:11;21.10;1.00
12833;DHT22;6483;51.310;4.462;2023-04-15T08:38:41;21.30;1.00
12833;DHT22;6483;51.310;4.462;2023-04-15T08:41:19;21.20;1.00
12833;DHT22;6483;51.310;4.462;2023-04-15T08:43:52;21.40;1.00
12833;DHT22;6483;51.310;4.462;2023-04-15T08:46:20;21.80;1.00
12833;DHT22;6483;51.310;4.462;2023-04-15T08:48:47;22.10;1.00
12833;DHT22;6483;51.310;4.462;2023-04-15T08:51:13;21.70;1.00
12833;DHT22;6483;51.310;4.462;2023-04-15T08:53:45;22.10;1.00
12833;DHT22;6483;51.310;4.462;2023-04-15T08:56:18;22.20;1.00
12833;DHT22;6483;51.310;4.462;2023-04-15T08:58:45;22.40;1.00
12833;DHT22;6483;51.310;4.462;2023-04-15T09:01:32;21.80;1.00
12833;DHT22;6483;51.310;4.462;2023-04-15T09:03:58;23.30;1.00
12833;DHT22;6483;51.310;4.462;2023-04-15T09:06:26;23.50;1.00
12833;DHT22;6483;51.310;4.462;2023-04-15T09:08:55;23.20;1.00
12833;DHT22;6483;51.310;4.462;2023-04-15T09:11:25;23.00;1.00
12833;DHT22;6483;51.310;4.462;2023-04-15T09:13:51;22.90;1.00
12833;DHT22;6483;51.310;4.462;2023-04-15T09:16:17;22.80;1.00
12833;DHT22;6483;51.310;4.462;2023-04-15T09:18:45;23.60;1.00
12833;DHT22;6483;51.310;4.462;2023-04-15T09:21:13;24.60;1.00
12833;DHT22;6483;51.310;4.462;2023-04-15T09:24:01;24.20;1.00
12833;DHT22;6483;51.310;4.462;2023-04-15T09:26:38;24.40;1.00
12833;DHT22;6483;51.310;4.462;2023-04-15T09:29:09;24.50;1.00
12833;DHT22;6483;51.310;4.462;2023-04-15T09:31:36;23.70;1.00
12833;DHT22;6483;51.310;4.462;2023-04-15T09:34:03;23.50;1.00
12833;DHT22;6483;51.310;4.462;2023-04-15T09:39:18;24.20;99.90
12833;DHT22;6483;51.310;4.462;2023-04-15T09:41:43;24.20;99.90
12833;DHT22;6483;51.310;4.462;2023-04-15T09:44:22;23.10;99.90
12833;DHT22;6483;51.310;4.462;2023-04-15T09:46:48;23.00;99.90
12833;DHT22;6483;51.310;4.462;2023-04-15T09:49:15;22.50;99.90
12833;DHT22;6483;51.310;4.462;2023-04-15T09:51:42;22.10;99.90
12833;DHT22;6483;51.310;4.462;2023-04-15T09:54:18;23.70;99.90
12833;DHT22;6483;51.310;4.462;2023-04-15T09:56:48;23.80;99.90
12833;DHT22;6483;51.310;4.462;2023-04-15T09:59:17;24.40;99.90
12833;DHT22;6483;51.310;4.462;2023-04-15T10:01:44;24.90;99.90
12833;DHT22;6483;51.310;4.462;2023-04-15T10:04:10;25.50;99.90
12833;DHT22;6483;51.310;4.462;2023-04-15T10:06:36;25.60;99.90
12833;DHT22;6483;51.310;4.462;2023-04-15T10:09:07;26.00;99.90
12833;DHT22;6483;51.310;4.462;2023-04-15T10:11:34;26.40;99.90
12833;DHT22;6483;51.310;4.462;2023-04-15T10:14:00;26.90;99.90
12833;DHT22;6483;51.310;4.462;2023-04-15T10:16:27;26.50;99.90
12833;DHT22;6483;51.310;4.462;2023-04-15T10:18:57;26.50;99.90
12833;DHT22;6483;51.310;4.462;2023-04-15T10:21:26;28.60;99.90
12833;DHT22;6483;51.310;4.462;2023-04-15T10:23:52;27.60;99.90
12833;DHT22;6483;51.310;4.462;2023-04-15T10:26:21;28.20;99.90
12833;DHT22;6483;51.310;4.462;2023-04-15T10:28:47;29.60;99.90
12833;DHT22;6483;51.310;4.462;2023-04-15T10:31:14;30.60;99.90
12833;DHT22;6483;51.310;4.462;2023-04-15T10:33:41;30.60;99.90
12833;DHT22;6483;51.310;4.462;2023-04-15T10:36:07;30.00;99.90
12833;DHT22;6483;51.310;4.462;2023-04-15T10:38:37;29.50;99.90
12833;DHT22;6483;51.310;4.462;2023-04-15T10:41:26;27.10;99.90
12833;DHT22;6483;51.310;4.462;2023-04-15T10:44:12;27.60;99.90
12833;DHT22;6483;51.310;4.462;2023-04-15T10:46:43;28.00;99.90
12833;DHT22;6483;51.310;4.462;2023-04-15T10:49:24;26.80;99.90
12833;DHT22;6483;51.310;4.462;2023-04-15T10:51:57;25.90;99.90
12833;DHT22;6483;51.310;4.462;2023-04-15T10:57:40;25.90;99.90
12833;DHT22;6483;51.310;4.462;2023-04-15T11:00:12;26.50;99.90
12833;DHT22;6483;51.310;4.462;2023-04-15T11:02:58;26.10;99.90
12833;DHT22;6483;51.310;4.462;2023-04-15T11:05:50;26.30;99.90
12833;DHT22;6483;51.310;4.462;2023-04-15T11:08:16;26.90;99.90
12833;DHT22;6483;51.310;4.462;2023-04-15T11:15:46;29.90;99.90
12833;DHT22;6483;51.310;4.462;2023-04-15T11:18:16;29.10;99.90
12833;DHT22;6483;51.310;4.462;2023-04-15T11:20:54;29.00;99.90
12833;DHT22;6483;51.310;4.462;2023-04-15T11:23:33;26.70;99.90
12833;DHT22;6483;51.310;4.462;2023-04-15T11:26:01;25.30;99.90
12833;DHT22;6483;51.310;4.462;2023-04-15T11:28:28;26.60;99.90
12833;DHT22;6483;51.310;4.462;2023-04-15T11:30:55;27.70;99.90
12833;DHT22;6483;51.310;4.462;2023-04-15T11:33:21;27.50;99.90
12833;DHT22;6483;51.310;4.462;2023-04-15T11:35:48;26.70;99.90
12833;DHT22;6483;51.310;4.462;2023-04-15T11:38:15;28.40;99.90
12833;DHT22;6483;51.310;4.462;2023-04-15T11:40:44;30.10;99.90
12833;DHT22;6483;51.310;4.462;2023-04-15T11:43:15;30.90;99.90
12833;DHT22;6483;51.310;4.462;2023-04-15T11:45:55;31.40;99.90
12833;DHT22;6483;51.310;4.462;2023-04-15T11:48:25;31.10;99.90
12833;DHT22;6483;51.310;4.462;2023-04-15T11:50:55;30.60;99.90
12833;DHT22;6483;51.310;4.462;2023-04-15T11:53:21;31.00;99.90
12833;DHT22;6483;51.310;4.462;2023-04-15T11:55:52;27.90;99.90
12833;DHT22;6483;51.310;4.462;2023-04-15T11:58:24;25.70;99.90
12833;DHT22;6483;51.310;4.462;2023-04-15T12:00:53;25.80;99.90
12833;DHT22;6483;51.310;4.462;2023-04-15T12:03:35;26.00;99.90
12833;DHT22;6483;51.310;4.462;2023-04-15T12:06:10;26.70;99.90
12833;DHT22;6483;51.310;4.462;2023-04-15T12:09:11;27.30;99.90
12833;DHT22;6483;51.310;4.462;2023-04-15T12:11:45;27.20;99.90
12833;DHT22;6483;51.310;4.462;2023-04-15T12:14:25;26.40;99.90
12833;DHT22;6483;51.310;4.462;2023-04-15T12:16:53;28.90;99.90
12833;DHT22;6483;51.310;4.462;2023-04-15T12:19:27;30.60;99.90
12833;DHT22;6483;51.310;4.462;2023-04-15T12:22:01;31.40;99.90
12833;DHT22;6483;51.310;4.462;2023-04-15T12:24:30;30.90;99.90
12833;DHT22;6483;51.310;4.462;2023-04-15T12:26:59;32.00;99.90
12833;DHT22;6483;51.310;4.462;2023-04-15T12:29:28;31.70;99.90
12833;DHT22;6483;51.310;4.462;2023-04-15T12:31:56;32.10;99.90
12833;DHT22;6483;51.310;4.462;2023-04-15T12:36:52;34.80;99.90
12833;DHT22;6483;51.310;4.462;2023-04-15T12:39:24;35.00;99.90
12833;DHT22;6483;51.310;4.462;2023-04-15T12:41:54;32.50;99.90
12833;DHT22;6483;51.310;4.462;2023-04-15T12:44:22;31.20;99.90
12833;DHT22;6483;51.310;4.462;2023-04-15T12:46:52;28.90;99.90
12833;DHT22;6483;51.310;4.462;2023-04-15T12:49:20;28.80;99.90
12833;DHT22;6483;51.310;4.462;2023-04-15T12:51:48;27.40;99.90
12833;DHT22;6483;51.310;4.462;2023-04-15T12:54:16;27.40;99.90
12833;DHT22;6483;51.310;4.462;2023-04-15T12:56:43;29.80;99.90
12833;DHT22;6483;51.310;4.462;2023-04-15T12:59:08;29.30;99.90
12833;DHT22;6483;51.310;4.462;2023-04-15T13:01:34;31.00;99.90
12833;DHT22;6483;51.310;4.462;2023-04-15T13:04:01;32.80;99.90
12833;DHT22;6483;51.310;4.462;2023-04-15T13:06:27;33.90;99.90
12833;DHT22;6483;51.310;4.462;2023-04-15T13:09:02;34.50;99.90
12833;DHT22;6483;51.310;4.462;2023-04-15T13:11:31;34.40;99.90
12833;DHT22;6483;51.310;4.462;2023-04-15T13:14:06;33.10;99.90
12833;DHT22;6483;51.310;4.462;2023-04-15T13:16:36;34.80;99.90
12833;DHT22;6483;51.310;4.462;2023-04-15T13:19:05;34.20;99.90
12833;DHT22;6483;51.310;4.462;2023-04-15T13:21:32;33.20;99.90
12833;DHT22;6483;51.310;4.462;2023-04-15T13:23:59;32.40;99.90
12833;DHT22;6483;51.310;4.462;2023-04-15T13:26:28;33.30;99.90
12833;DHT22;6483;51.310;4.462;2023-04-15T13:31:21;34.10;99.90
12833;DHT22;6483;51.310;4.462;2023-04-15T13:33:47;29.80;99.90
12833;DHT22;6483;51.310;4.462;2023-04-15T13:36:15;31.10;99.90
12833;DHT22;6483;51.310;4.462;2023-04-15T13:38:44;28.70;99.90
12833;DHT22;6483;51.310;4.462;2023-04-15T13:43:41;28.70;99.90
12833;DHT22;6483;51.310;4.462;2023-04-15T13:46:07;24.50;99.90
12833;DHT22;6483;51.310;4.462;2023-04-15T13:48:39;24.60;99.90
12833;DHT22;6483;51.310;4.462;2023-04-15T13:55:57;23.80;99.90
12833;DHT22;6483;51.310;4.462;2023-04-15T13:58:26;21.50;99.90
12833;DHT22;6483;51.310;4.462;2023-04-15T14:00:55;23.00;99.90
12833;DHT22;6483;51.310;4.462;2023-04-15T14:03:21;25.20;99.90
12833;DHT22;6483;51.310;4.462;2023-04-15T14:05:46;27.60;99.90
12833;DHT22;6483;51.310;4.462;2023-04-15T14:08:12;26.10;99.90
12833;DHT22;6483;51.310;4.462;2023-04-15T14:10:41;25.00;99.90
12833;DHT22;6483;51.310;4.462;2023-04-15T14:13:08;23.90;99.90
12833;DHT22;6483;51.310;4.462;2023-04-15T14:15:34;24.80;99.90
12833;DHT22;6483;51.310;4.462;2023-04-15T14:17:59;25.00;99.90
12833;DHT22;6483;51.310;4.462;2023-04-15T14:20:29;23.40;99.90
12833;DHT22;6483;51.310;4.462;2023-04-15T14:22:54;23.00;99.90
12833;DHT22;6483;51.310;4.462;2023-04-15T14:25:20;22.10;99.90
12833;DHT22;6483;51.310;4.462;2023-04-15T14:27:46;22.60;99.90
12833;DHT22;6483;51.310;4.462;2023-04-15T14:30:15;21.80;99.90
12833;DHT22;6483;51.310;4.462;2023-04-15T14:32:41;23.70;99.90
12833;DHT22;6483;51.310;4.462;2023-04-15T14:35:10;24.90;99.90
12833;DHT22;6483;51.310;4.462;2023-04-15T14:37:38;26.50;99.90
12833;DHT22;6483;51.310;4.462;2023-04-15T14:40:05;28.50;99.90
12833;DHT22;6483;51.310;4.462;2023-04-15T14:42:31;27.40;99.90
12833;DHT22;6483;51.310;4.462;2023-04-15T14:44:59;24.50;99.90
12833;DHT22;6483;51.310;4.462;2023-04-15T14:47:25;24.00;99.90
12833;DHT22;6483;51.310;4.462;2023-04-15T14:49:51;25.10;99.90
12833;DHT22;6483;51.310;4.462;2023-04-15T14:52:16;26.20;99.90
12833;DHT22;6483;51.310;4.462;2023-04-15T14:54:42;26.70;99.90
12833;DHT22;6483;51.310;4.462;2023-04-15T14:57:09;26.60;99.90
12833;DHT22;6483;51.310;4.462;2023-04-15T14:59:38;24.80;99.90
12833;DHT22;6483;51.310;4.462;2023-04-15T15:02:04;25.00;99.90
12833;DHT22;6483;51.310;4.462;2023-04-15T15:04:30;26.00;99.90
12833;DHT22;6483;51.310;4.462;2023-04-15T15:06:57;26.80;99.90
12833;DHT22;6483;51.310;4.462;2023-04-15T15:09:23;27.00;99.90
12833;DHT22;6483;51.310;4.462;2023-04-15T15:11:51;25.50;99.90
12833;DHT22;6483;51.310;4.462;2023-04-15T15:14:16;22.90;99.90
12833;DHT22;6483;51.310;4.462;2023-04-15T15:16:42;21.90;99.90
12833;DHT22;6483;51.310;4.462;2023-04-15T15:19:08;21.10;99.90
12833;DHT22;6483;51.310;4.462;2023-04-15T15:21:36;21.60;99.90
12833;DHT22;6483;51.310;4.462;2023-04-15T15:24:05;22.00;99.90
12833;DHT22;6483;51.310;4.462;2023-04-15T15:26:31;21.30;99.90
12833;DHT22;6483;51.310;4.462;2023-04-15T15:29:00;20.10;99.90
12833;DHT22;6483;51.310;4.462;2023-04-15T15:31:26;19.00;99.90
12833;DHT22;6483;51.310;4.462;2023-04-15T15:33:52;18.10;99.90
12833;DHT22;6483;51.310;4.462;2023-04-15T15:36:17;17.60;99.90
12833;DHT22;6483;51.310;4.462;2023-04-15T15:38:43;19.10;99.90
12833;DHT22;6483;51.310;4.462;2023-04-15T15:41:09;20.10;99.90
12833;DHT22;6483;51.310;4.462;2023-04-15T15:43:35;21.60;99.90
12833;DHT22;6483;51.310;4.462;2023-04-15T15:46:05;23.00;99.90
12833;DHT22;6483;51.310;4.462;2023-04-15T15:48:31;24.60;99.90
12833;DHT22;6483;51.310;4.462;2023-04-15T15:50:57;23.40;99.90
12833;DHT22;6483;51.310;4.462;2023-04-15T15:53:23;22.20;99.90
12833;DHT22;6483;51.310;4.462;2023-04-15T15:55:50;21.90;99.90
12833;DHT22;6483;51.310;4.462;2023-04-15T15:58:19;20.80;99.90
12833;DHT22;6483;51.310;4.462;2023-04-15T16:00:45;20.10;99.90
12833;DHT22;6483;51.310;4.462;2023-04-15T16:03:11;19.10;99.90
12833;DHT22;6483;51.310;4.462;2023-04-15T16:05:37;18.70;99.90
12833;DHT22;6483;51.310;4.462;2023-04-15T16:08:03;17.90;99.90
12833;DHT22;6483;51.310;4.462;2023-04-15T16:10:32;17.00;99.90
12833;DHT22;6483;51.310;4.462;2023-04-15T16:12:58;16.70;99.90
12833;DHT22;6483;51.310;4.462;2023-04-15T16:15:27;17.70;99.90
12833;DHT22;6483;51.310;4.462;2023-04-15T16:17:56;18.30;99.90
12833;DHT22;6483;51.310;4.462;2023-04-15T16:20:22;17.50;99.90
12833;DHT22;6483;51.310;4.462;2023-04-15T16:22:47;16.80;99.90
12833;DHT22;6483;51.310;4.462;2023-04-15T16:25:13;16.20;99.90